sensor_id;sensor_type;location;lat;lon;timestamp;pressure;altitude;pressure_sealevel;temperature;humidity
5126;BME280;63008;53.112;8.896;2023-05-19T00:00:52;102787.63;;;8.73;91.78
5126;BME280;63008;53.112;8.896;2023-05-19T00:02:53;102788.13;;;8.60;92.09
5126;BME280;63008;53.112;8.896;2023-05-19T00:04:56;102786.19;;;8.56;91.84
5126;BME280;63008;53.112;8.896;2023-05-19T00:06:58;102785.69;;;8.64;91.92
5126;BME280;63008;53.112;8.896;2023-05-19T00:09:02;102785.94;;;8.62;91.69
5126;BME280;63008;53.112;8.896;2023-05-19T00:11:03;102789.44;;;8.43;92.01
5126;BME280;63008;53.112;8.896;2023-05-19T00:13:05;102788.34;;;8.44;91.99
5126;BME280;63008;53.112;8.896;2023-05-19T00:15:06;102791.25;;;8.17;92.16
5126;BME280;63008;53.112;8.896;2023-05-19T00:17:08;102788.28;;;8.24;92.78
5126;BME280;63008;53.112;8.896;2023-05-19T00:19:08;102786.94;;;8.26;92.36
5126;BME280;63008;53.112;8.896;2023-05-19T00:21:09;102791.88;;;8.29;92.07
5126;BME280;63008;53.112;8.896;2023-05-19T00:23:10;102784.72;;;8.18;91.86
5126;BME280;63008;53.112;8.896;2023-05-19T00:25:11;102784.38;;;8.10;92.29
5126;BME280;63008;53.112;8.896;2023-05-19T00:27:12;102785.72;;;8.02;92.72
5126;BME280;63008;53.112;8.896;2023-05-19T00:29:13;102787.06;;;7.95;93.37
5126;BME280;63008;53.112;8.896;2023-05-19T00:31:18;102779.38;;;7.92;93.45
5126;BME280;63008;53.112;8.896;2023-05-19T00:33:19;102784.28;;;7.90;93.18
5126;BME280;63008;53.112;8.896;2023-05-19T00:35:20;102784.84;;;7.92;93.15
5126;BME280;63008;53.112;8.896;2023-05-19T00:37:21;102775.56;;;7.93;92.71
5126;BME280;63008;53.112;8.896;2023-05-19T00:39:23;102785.59;;;7.82;92.51
5126;BME280;63008;53.112;8.896;2023-05-19T00:41:23;102775.81;;;7.86;93.13
5126;BME280;63008;53.112;8.896;2023-05-19T00:43:25;102783.47;;;7.89;92.71
5126;BME280;63008;53.112;8.896;2023-05-19T00:45:27;102780.72;;;7.84;92.74
5126;BME280;63008;53.112;8.896;2023-05-19T00:47:28;102789.38;;;7.71;93.62
5126;BME280;63008;53.112;8.896;2023-05-19T00:49:29;102784.78;;;7.77;93.91
5126;BME280;63008;53.112;8.896;2023-05-19T00:51:30;102788.28;;;7.67;93.39
5126;BME280;63008;53.112;8.896;2023-05-19T00:53:32;102777.84;;;7.64;93.57
5126;BME280;63008;53.112;8.896;2023-05-19T00:55:36;102791.72;;;7.53;93.68
5126;BME280;63008;53.112;8.896;2023-05-19T00:57:37;102780.84;;;7.58;93.67
5126;BME280;63008;53.112;8.896;2023-05-19T00:59:38;102780.25;;;7.56;93.78
5126;BME280;63008;53.112;8.896;2023-05-19T01:01:39;102777.84;;;7.59;93.73
5126;BME280;63008;53.112;8.896;2023-05-19T01:03:40;102778.94;;;7.63;93.19
5126;BME280;63008;53.112;8.896;2023-05-19T01:05:42;102780.53;;;7.54;93.26
5126;BME280;63008;53.112;8.896;2023-05-19T01:07:47;102767.56;;;7.35;94.00
5126;BME280;63008;53.112;8.896;2023-05-19T01:09:53;102772.16;;;7.29;94.02
5126;BME280;63008;53.112;8.896;2023-05-19T01:11:54;102776.03;;;7.33;94.10
5126;BME280;63008;53.112;8.896;2023-05-19T01:13:55;102781.75;;;7.32;93.80
5126;BME280;63008;53.112;8.896;2023-05-19T01:18:24;102780.59;;;7.23;93.65
5126;BME280;63008;53.112;8.896;2023-05-19T01:20:40;102781.69;;;7.22;94.05
5126;BME280;63008;53.112;8.896;2023-05-19T01:23:50;102774.19;;;7.08;93.54
5126;BME280;63008;53.112;8.896;2023-05-19T01:30:32;102775.22;;;7.02;93.88
5126;BME280;63008;53.112;8.896;2023-05-19T01:32:37;102776.53;;;6.94;94.09
5126;BME280;63008;53.112;8.896;2023-05-19T01:34:42;102778.13;;;6.90;94.36
5126;BME280;63008;53.112;8.896;2023-05-19T01:36:44;102778.34;;;6.84;94.19
5126;BME280;63008;53.112;8.896;2023-05-19T01:38:50;102777.63;;;6.93;94.04
5126;BME280;63008;53.112;8.896;2023-05-19T01:40:53;102775.94;;;6.87;93.70
5126;BME280;63008;53.112;8.896;2023-05-19T01:42:56;102773.13;;;6.82;93.91
5126;BME280;63008;53.112;8.896;2023-05-19T01:44:58;102777.06;;;6.91;93.71
5126;BME280;63008;53.112;8.896;2023-05-19T01:46:59;102772.50;;;7.02;93.51
5126;BME280;63008;53.112;8.896;2023-05-19T01:49:01;102777.97;;;7.02;93.10
5126;BME280;63008;53.112;8.896;2023-05-19T01:51:02;102771.97;;;7.05;93.06
5126;BME280;63008;53.112;8.896;2023-05-19T01:53:03;102770.69;;;7.12;92.19
5126;BME280;63008;53.112;8.896;2023-05-19T01:55:05;102772.22;;;7.03;92.14
5126;BME280;63008;53.112;8.896;2023-05-19T01:59:39;102766.81;;;7.08;92.71
5126;BME280;63008;53.112;8.896;2023-05-19T02:01:42;102770.13;;;7.10;92.43
5126;BME280;63008;53.112;8.896;2023-05-19T02:04:18;102773.66;;;7.11;92.24
5126;BME280;63008;53.112;8.896;2023-05-19T02:06:39;102775.28;;;7.12;91.87
5126;BME280;63008;53.112;8.896;2023-05-19T02:08:46;102772.00;;;7.10;92.01
5126;BME280;63008;53.112;8.896;2023-05-19T02:10:54;102774.47;;;7.06;91.98
5126;BME280;63008;53.112;8.896;2023-05-19T02:13:00;102771.97;;;7.05;92.34
5126;BME280;63008;53.112;8.896;2023-05-19T02:15:10;102775.09;;;7.18;91.74
5126;BME280;63008;53.112;8.896;2023-05-19T02:17:13;102782.16;;;7.14;91.63
5126;BME280;63008;53.112;8.896;2023-05-19T02:19:27;102779.41;;;7.14;91.57
5126;BME280;63008;53.112;8.896;2023-05-19T02:21:28;102782.19;;;7.19;92.10
5126;BME280;63008;53.112;8.896;2023-05-19T02:23:28;102776.47;;;7.20;92.13
5126;BME280;63008;53.112;8.896;2023-05-19T02:25:29;102778.09;;;7.17;92.14
5126;BME280;63008;53.112;8.896;2023-05-19T02:27:31;102777.53;;;7.15;91.96
5126;BME280;63008;53.112;8.896;2023-05-19T02:29:32;102777.22;;;7.11;92.14
5126;BME280;63008;53.112;8.896;2023-05-19T02:31:33;102777.22;;;7.11;92.26
5126;BME280;63008;53.112;8.896;2023-05-19T02:33:34;102774.53;;;7.16;92.07
5126;BME280;63008;53.112;8.896;2023-05-19T02:35:36;102774.81;;;7.15;91.75
5126;BME280;63008;53.112;8.896;2023-05-19T02:37:37;102774.00;;;7.19;92.25
5126;BME280;63008;53.112;8.896;2023-05-19T02:39:38;102777.88;;;7.23;92.32
5126;BME280;63008;53.112;8.896;2023-05-19T02:41:39;102779.97;;;7.16;91.79
5126;BME280;63008;53.112;8.896;2023-05-19T02:43:40;102771.47;;;7.13;92.14
5126;BME280;63008;53.112;8.896;2023-05-19T02:45:41;102770.44;;;7.14;92.17
5126;BME280;63008;53.112;8.896;2023-05-19T02:47:42;102767.28;;;7.00;92.43
5126;BME280;63008;53.112;8.896;2023-05-19T02:49:43;102771.66;;;7.01;92.69
5126;BME280;63008;53.112;8.896;2023-05-19T02:51:44;102764.34;;;7.07;92.69
5126;BME280;63008;53.112;8.896;2023-05-19T02:53:45;102763.56;;;7.11;92.06
5126;BME280;63008;53.112;8.896;2023-05-19T02:55:46;102766.75;;;7.03;92.07
5126;BME280;63008;53.112;8.896;2023-05-19T02:57:47;102763.22;;;7.03;92.17
5126;BME280;63008;53.112;8.896;2023-05-19T02:59:48;102763.75;;;7.00;92.16
5126;BME280;63008;53.112;8.896;2023-05-19T03:01:51;102765.84;;;6.93;91.96
5126;BME280;63008;53.112;8.896;2023-05-19T03:03:52;102763.44;;;6.96;92.16
5126;BME280;63008;53.112;8.896;2023-05-19T03:05:53;102757.94;;;6.91;91.82
5126;BME280;63008;53.112;8.896;2023-05-19T03:07:54;102763.34;;;6.86;91.93
5126;BME280;63008;53.112;8.896;2023-05-19T03:09:55;102760.88;;;6.85;92.00
5126;BME280;63008;53.112;8.896;2023-05-19T03:11:56;102756.31;;;6.90;92.22
5126;BME280;63008;53.112;8.896;2023-05-19T03:14:03;102762.84;;;6.89;91.88
5126;BME280;63008;53.112;8.896;2023-05-19T03:16:04;102751.22;;;6.72;91.75
5126;BME280;63008;53.112;8.896;2023-05-19T03:18:07;102752.91;;;6.78;91.53
5126;BME280;63008;53.112;8.896;2023-05-19T03:20:08;102752.03;;;6.73;92.02
5126;BME280;63008;53.112;8.896;2023-05-19T03:22:10;102757.50;;;6.73;91.51
5126;BME280;63008;53.112;8.896;2023-05-19T03:24:11;102751.41;;;6.61;91.39
5126;BME280;63008;53.112;8.896;2023-05-19T03:26:12;102751.84;;;6.53;91.95
5126;BME280;63008;53.112;8.896;2023-05-19T03:28:13;102757.91;;;6.60;92.18
5126;BME280;63008;53.112;8.896;2023-05-19T03:30:14;102758.84;;;6.70;92.13
5126;BME280;63008;53.112;8.896;2023-05-19T03:32:15;102759.63;;;6.66;91.61
5126;BME280;63008;53.112;8.896;2023-05-19T03:34:16;102762.56;;;6.59;92.04
5126;BME280;63008;53.112;8.896;2023-05-19T03:36:17;102759.59;;;6.61;91.74
5126;BME280;63008;53.112;8.896;2023-05-19T03:38:18;102762.81;;;6.58;91.86
5126;BME280;63008;53.112;8.896;2023-05-19T03:40:19;102764.69;;;6.52;92.41
5126;BME280;63008;53.112;8.896;2023-05-19T03:42:20;102762.16;;;6.46;92.58
5126;BME280;63008;53.112;8.896;2023-05-19T03:44:21;102770.38;;;6.51;92.60
5126;BME280;63008;53.112;8.896;2023-05-19T03:46:22;102765.53;;;6.58;92.19
5126;BME280;63008;53.112;8.896;2023-05-19T03:48:23;102767.69;;;6.56;92.54
5126;BME280;63008;53.112;8.896;2023-05-19T03:50:24;102765.66;;;6.68;92.40
5126;BME280;63008;53.112;8.896;2023-05-19T03:52:26;102767.09;;;6.75;92.07
5126;BME280;63008;53.112;8.896;2023-05-19T03:54:27;102760.00;;;6.79;91.73
5126;BME280;63008;53.112;8.896;2023-05-19T03:56:28;102760.00;;;6.79;91.73
5126;BME280;63008;53.112;8.896;2023-05-19T03:58:29;102759.25;;;6.84;91.62
5126;BME280;63008;53.112;8.896;2023-05-19T04:00:31;102760.69;;;6.91;91.37
5126;BME280;63008;53.112;8.896;2023-05-19T04:02:32;102758.75;;;6.92;90.82
5126;BME280;63008;53.112;8.896;2023-05-19T04:04:32;102763.44;;;6.96;91.24
5126;BME280;63008;53.112;8.896;2023-05-19T04:06:33;102768.88;;;6.91;90.59
5126;BME280;63008;53.112;8.896;2023-05-19T04:08:35;102772.13;;;6.88;90.87
5126;BME280;63008;53.112;8.896;2023-05-19T04:10:36;102763.66;;;6.90;91.72
5126;BME280;63008;53.112;8.896;2023-05-19T04:12:37;102770.81;;;6.96;91.60
5126;BME280;63008;53.112;8.896;2023-05-19T04:14:38;102766.72;;;6.98;90.97
5126;BME280;63008;53.112;8.896;2023-05-19T04:16:39;102769.97;;;6.95;91.05
5126;BME280;63008;53.112;8.896;2023-05-19T04:18:41;102768.59;;;6.93;91.04
5126;BME280;63008;53.112;8.896;2023-05-19T04:20:42;102770.03;;;7.00;90.67
5126;BME280;63008;53.112;8.896;2023-05-19T04:22:46;102772.00;;;7.10;90.65
5126;BME280;63008;53.112;8.896;2023-05-19T04:24:47;102771.13;;;7.04;90.03
5126;BME280;63008;53.112;8.896;2023-05-19T04:26:48;102770.56;;;7.02;90.57
5126;BME280;63008;53.112;8.896;2023-05-19T04:28:49;102763.47;;;7.01;90.37
5126;BME280;63008;53.112;8.896;2023-05-19T04:30:50;102769.41;;;6.88;90.76
5126;BME280;63008;53.112;8.896;2023-05-19T04:32:51;102763.44;;;6.96;91.24
5126;BME280;63008;53.112;8.896;2023-05-19T04:34:52;102770.13;;;7.10;90.79
5126;BME280;63008;53.112;8.896;2023-05-19T04:36:53;102773.66;;;7.11;90.36
5126;BME280;63008;53.112;8.896;2023-05-19T04:38:55;102772.06;;;7.15;90.66
5126;BME280;63008;53.112;8.896;2023-05-19T04:41:02;102773.19;;;7.18;90.33
5126;BME280;63008;53.112;8.896;2023-05-19T04:43:03;102774.06;;;7.24;90.21
5126;BME280;63008;53.112;8.896;2023-05-19T04:45:05;102767.50;;;7.25;90.43
5126;BME280;63008;53.112;8.896;2023-05-19T04:47:08;102768.06;;;7.27;90.20
5126;BME280;63008;53.112;8.896;2023-05-19T04:49:10;102770.75;;;7.22;89.76
5126;BME280;63008;53.112;8.896;2023-05-19T04:51:12;102763.88;;;7.15;90.21
5126;BME280;63008;53.112;8.896;2023-05-19T04:53:14;102774.00;;;7.19;90.15
5126;BME280;63008;53.112;8.896;2023-05-19T04:55:15;102778.63;;;7.14;90.21
5126;BME280;63008;53.112;8.896;2023-05-19T04:57:16;102773.97;;;7.14;90.27
5126;BME280;63008;53.112;8.896;2023-05-19T04:59:17;102774.84;;;7.19;90.36
5126;BME280;63008;53.112;8.896;2023-05-19T05:01:18;102771.59;;;7.27;89.98
5126;BME280;63008;53.112;8.896;2023-05-19T05:03:21;102780.84;;;7.21;89.28
5126;BME280;63008;53.112;8.896;2023-05-19T05:05:24;102779.50;;;7.24;89.06
5126;BME280;63008;53.112;8.896;2023-05-19T05:07:24;102782.81;;;7.26;88.59
5126;BME280;63008;53.112;8.896;2023-05-19T05:09:25;102779.25;;;7.25;89.06
5126;BME280;63008;53.112;8.896;2023-05-19T05:11:27;102781.19;;;7.30;89.19
5126;BME280;63008;53.112;8.896;2023-05-19T05:13:28;102774.63;;;7.26;88.33
5126;BME280;63008;53.112;8.896;2023-05-19T05:15:29;102779.25;;;7.25;88.89
5126;BME280;63008;53.112;8.896;2023-05-19T05:17:30;102785.22;;;7.22;88.93
5126;BME280;63008;53.112;8.896;2023-05-19T05:19:31;102782.50;;;7.22;89.22
5126;BME280;63008;53.112;8.896;2023-05-19T05:21:32;102796.47;;;7.26;89.45
5126;BME280;63008;53.112;8.896;2023-05-19T05:23:34;102787.75;;;7.29;89.13
5126;BME280;63008;53.112;8.896;2023-05-19T05:25:35;102787.47;;;7.30;89.32
5126;BME280;63008;53.112;8.896;2023-05-19T05:27:36;102787.75;;;7.29;89.62
5126;BME280;63008;53.112;8.896;2023-05-19T05:29:37;102789.00;;;7.53;89.30
5126;BME280;63008;53.112;8.896;2023-05-19T05:31:38;102784.59;;;7.52;88.51
5126;BME280;63008;53.112;8.896;2023-05-19T05:33:39;102785.16;;;7.54;88.28
5126;BME280;63008;53.112;8.896;2023-05-19T05:35:40;102784.16;;;7.65;88.22
5126;BME280;63008;53.112;8.896;2023-05-19T05:37:41;102779.63;;;7.85;88.21
5126;BME280;63008;53.112;8.896;2023-05-19T05:39:42;102781.31;;;7.96;87.69
5126;BME280;63008;53.112;8.896;2023-05-19T05:41:43;102783.78;;;7.93;85.44
5126;BME280;63008;53.112;8.896;2023-05-19T05:43:44;102781.31;;;7.96;84.31
5126;BME280;63008;53.112;8.896;2023-05-19T05:45:45;102784.34;;;8.05;84.29
5126;BME280;63008;53.112;8.896;2023-05-19T05:47:46;102786.41;;;8.24;85.17
5126;BME280;63008;53.112;8.896;2023-05-19T05:49:47;102782.56;;;8.35;84.36
5126;BME280;63008;53.112;8.896;2023-05-19T05:51:48;102775.25;;;8.51;84.53
5126;BME280;63008;53.112;8.896;2023-05-19T05:53:51;102783.47;;;8.61;84.04
5126;BME280;63008;53.112;8.896;2023-05-19T05:55:53;102776.09;;;8.71;83.47
5126;BME280;63008;53.112;8.896;2023-05-19T05:57:54;102778.31;;;8.84;83.24
5126;BME280;63008;53.112;8.896;2023-05-19T05:59:56;102784.91;;;8.98;82.26
5126;BME280;63008;53.112;8.896;2023-05-19T06:01:57;102784.63;;;9.04;81.89
5126;BME280;63008;53.112;8.896;2023-05-19T06:03:58;102779.44;;;9.13;81.00
5126;BME280;63008;53.112;8.896;2023-05-19T06:05:59;102778.59;;;9.12;80.31
5126;BME280;63008;53.112;8.896;2023-05-19T06:08:01;102784.06;;;9.27;80.71
5126;BME280;63008;53.112;8.896;2023-05-19T06:10:03;102788.44;;;9.43;80.56
5126;BME280;63008;53.112;8.896;2023-05-19T06:12:04;102782.41;;;9.46;78.85
5126;BME280;63008;53.112;8.896;2023-05-19T06:14:06;102789.81;;;9.51;78.48
5126;BME280;63008;53.112;8.896;2023-05-19T06:16:07;102786.19;;;9.65;79.13
5126;BME280;63008;53.112;8.896;2023-05-19T06:18:08;102785.09;;;9.76;78.70
5126;BME280;63008;53.112;8.896;2023-05-19T06:20:09;102785.91;;;9.77;78.14
5126;BME280;63008;53.112;8.896;2023-05-19T06:22:11;102782.88;;;9.78;77.88
5126;BME280;63008;53.112;8.896;2023-05-19T06:24:12;102790.56;;;9.81;78.03
5126;BME280;63008;53.112;8.896;2023-05-19T06:26:12;102788.63;;;9.87;79.05
5126;BME280;63008;53.112;8.896;2023-05-19T06:28:14;102787.25;;;9.89;79.15
5126;BME280;63008;53.112;8.896;2023-05-19T06:30:15;102789.41;;;10.02;78.50
5126;BME280;63008;53.112;8.896;2023-05-19T06:32:16;102788.84;;;10.10;78.67
5126;BME280;63008;53.112;8.896;2023-05-19T06:34:17;102792.69;;;10.09;78.93
5126;BME280;63008;53.112;8.896;2023-05-19T06:36:18;102783.91;;;10.12;79.43
5126;BME280;63008;53.112;8.896;2023-05-19T06:38:19;102790.13;;;10.28;79.44
5126;BME280;63008;53.112;8.896;2023-05-19T06:40:21;102779.38;;;10.41;78.74
5126;BME280;63008;53.112;8.896;2023-05-19T06:42:22;102778.72;;;10.54;78.41
5126;BME280;63008;53.112;8.896;2023-05-19T06:44:24;102775.69;;;10.61;77.86
5126;BME280;63008;53.112;8.896;2023-05-19T06:46:25;102774.34;;;10.58;77.82
5126;BME280;63008;53.112;8.896;2023-05-19T06:48:26;102777.84;;;10.69;78.32
5126;BME280;63008;53.112;8.896;2023-05-19T06:50:27;102784.41;;;10.73;77.50
5126;BME280;63008;53.112;8.896;2023-05-19T06:52:28;102782.88;;;10.90;77.42
5126;BME280;63008;53.112;8.896;2023-05-19T06:54:29;102782.28;;;10.98;76.58
5126;BME280;63008;53.112;8.896;2023-05-19T06:56:30;102778.72;;;10.97;75.92
5126;BME280;63008;53.112;8.896;2023-05-19T06:58:31;102788.91;;;10.97;75.30
5126;BME280;63008;53.112;8.896;2023-05-19T07:00:32;102787.66;;;11.13;75.72
5126;BME280;63008;53.112;8.896;2023-05-19T07:02:33;102782.03;;;11.28;76.13
5126;BME280;63008;53.112;8.896;2023-05-19T07:04:35;102796.75;;;11.42;74.84
5126;BME280;63008;53.112;8.896;2023-05-19T07:06:36;102789.84;;;11.44;74.56
5126;BME280;63008;53.112;8.896;2023-05-19T07:08:38;102794.72;;;11.52;75.00
5126;BME280;63008;53.112;8.896;2023-05-19T07:10:39;102801.31;;;11.51;75.55
5126;BME280;63008;53.112;8.896;2023-05-19T07:12:40;102797.16;;;11.59;74.23
5126;BME280;63008;53.112;8.896;2023-05-19T07:14:41;102796.75;;;11.70;73.82
5126;BME280;63008;53.112;8.896;2023-05-19T07:16:42;102799.66;;;11.84;73.33
5126;BME280;63008;53.112;8.896;2023-05-19T07:18:43;102794.88;;;11.94;72.35
5126;BME280;63008;53.112;8.896;2023-05-19T07:20:44;102790.66;;;12.02;73.52
5126;BME280;63008;53.112;8.896;2023-05-19T07:22:44;102799.00;;;11.92;72.50
5126;BME280;63008;53.112;8.896;2023-05-19T07:24:45;102790.56;;;12.07;72.43
5126;BME280;63008;53.112;8.896;2023-05-19T07:26:46;102789.63;;;12.16;72.27
5126;BME280;63008;53.112;8.896;2023-05-19T07:28:47;102793.22;;;12.17;72.05
5126;BME280;63008;53.112;8.896;2023-05-19T07:30:48;102785.22;;;12.39;73.16
5126;BME280;63008;53.112;8.896;2023-05-19T07:32:49;102791.13;;;12.51;71.19
5126;BME280;63008;53.112;8.896;2023-05-19T07:34:51;102783.97;;;12.68;71.33
5126;BME280;63008;53.112;8.896;2023-05-19T07:36:52;102784.66;;;12.60;70.44
5126;BME280;63008;53.112;8.896;2023-05-19T07:38:52;102785.16;;;12.62;70.63
5126;BME280;63008;53.112;8.896;2023-05-19T07:40:53;102787.75;;;12.72;70.02
5126;BME280;63008;53.112;8.896;2023-05-19T07:42:54;102782.78;;;12.92;71.57
5126;BME280;63008;53.112;8.896;2023-05-19T07:44:56;102782.03;;;13.05;70.07
5126;BME280;63008;53.112;8.896;2023-05-19T07:46:57;102779.09;;;13.15;68.37
5126;BME280;63008;53.112;8.896;2023-05-19T07:48:58;102777.31;;;13.24;68.39
5126;BME280;63008;53.112;8.896;2023-05-19T07:50:59;102783.03;;;13.28;68.64
5126;BME280;63008;53.112;8.896;2023-05-19T07:53:00;102779.81;;;13.39;67.76
5126;BME280;63008;53.112;8.896;2023-05-19T07:55:01;102782.16;;;13.46;67.82
5126;BME280;63008;53.112;8.896;2023-05-19T07:57:02;102781.59;;;13.62;69.12
5126;BME280;63008;53.112;8.896;2023-05-19T07:59:06;102774.16;;;13.76;68.92
5126;BME280;63008;53.112;8.896;2023-05-19T08:01:13;102769.75;;;13.89;67.55
5126;BME280;63008;53.112;8.896;2023-05-19T08:03:14;102769.22;;;14.00;66.58
5126;BME280;63008;53.112;8.896;2023-05-19T08:05:17;102765.94;;;14.12;67.21
5126;BME280;63008;53.112;8.896;2023-05-19T08:07:18;102772.31;;;14.26;66.12
5126;BME280;63008;53.112;8.896;2023-05-19T08:09:19;102767.22;;;14.19;66.13
5126;BME280;63008;53.112;8.896;2023-05-19T08:11:20;102773.66;;;14.28;66.24
5126;BME280;63008;53.112;8.896;2023-05-19T08:13:21;102775.56;;;14.41;64.30
5126;BME280;63008;53.112;8.896;2023-05-19T08:15:22;102771.25;;;14.49;64.23
5126;BME280;63008;53.112;8.896;2023-05-19T08:17:23;102759.13;;;14.71;64.64
5126;BME280;63008;53.112;8.896;2023-05-19T08:19:24;102771.69;;;14.77;62.37
5126;BME280;63008;53.112;8.896;2023-05-19T08:21:26;102764.41;;;14.81;62.44
5126;BME280;63008;53.112;8.896;2023-05-19T08:23:27;102765.09;;;14.87;61.78
5126;BME280;63008;53.112;8.896;2023-05-19T08:25:28;102767.38;;;15.07;61.04
5126;BME280;63008;53.112;8.896;2023-05-19T08:27:29;102762.41;;;15.17;61.06
5126;BME280;63008;53.112;8.896;2023-05-19T08:29:30;102761.69;;;15.12;60.73
5126;BME280;63008;53.112;8.896;2023-05-19T08:31:31;102764.09;;;15.27;60.15
5126;BME280;63008;53.112;8.896;2023-05-19T08:33:32;102760.81;;;15.47;60.24
5126;BME280;63008;53.112;8.896;2023-05-19T08:35:33;102758.03;;;15.47;59.15
5126;BME280;63008;53.112;8.896;2023-05-19T08:37:35;102759.38;;;15.49;59.50
5126;BME280;63008;53.112;8.896;2023-05-19T08:39:37;102758.81;;;15.69;60.37
5126;BME280;63008;53.112;8.896;2023-05-19T08:41:38;102760.16;;;15.72;60.09
5126;BME280;63008;53.112;8.896;2023-05-19T08:43:39;102755.00;;;15.96;57.50
5126;BME280;63008;53.112;8.896;2023-05-19T08:45:42;102751.13;;;16.05;57.93
5126;BME280;63008;53.112;8.896;2023-05-19T08:47:45;102750.50;;;16.17;57.11
5126;BME280;63008;53.112;8.896;2023-05-19T08:49:50;102745.41;;;16.49;57.10
5126;BME280;63008;53.112;8.896;2023-05-19T08:52:00;102744.28;;;16.58;54.70
5126;BME280;63008;53.112;8.896;2023-05-19T08:54:14;102753.22;;;16.81;56.83
5126;BME280;63008;53.112;8.896;2023-05-19T08:56:20;102733.66;;;16.86;54.10
5126;BME280;63008;53.112;8.896;2023-05-19T08:58:21;102732.34;;;16.83;56.54
5126;BME280;63008;53.112;8.896;2023-05-19T09:00:22;102733.63;;;17.11;58.23
5126;BME280;63008;53.112;8.896;2023-05-19T09:02:24;102728.88;;;17.37;54.50
5126;BME280;63008;53.112;8.896;2023-05-19T09:04:25;102719.53;;;17.33;52.03
5126;BME280;63008;53.112;8.896;2023-05-19T09:06:28;102715.66;;;17.34;53.56
5126;BME280;63008;53.112;8.896;2023-05-19T09:08:33;102722.50;;;17.74;52.46
5126;BME280;63008;53.112;8.896;2023-05-19T09:10:34;102724.38;;;17.99;51.34
5126;BME280;63008;53.112;8.896;2023-05-19T09:12:35;102724.06;;;17.92;52.10
5126;BME280;63008;53.112;8.896;2023-05-19T09:14:36;102716.34;;;17.98;49.57
5126;BME280;63008;53.112;8.896;2023-05-19T09:16:38;102711.63;;;17.98;51.32
5126;BME280;63008;53.112;8.896;2023-05-19T09:18:38;102699.66;;;17.69;50.68
5126;BME280;63008;53.112;8.896;2023-05-19T09:20:44;102704.97;;;18.11;49.16
5126;BME280;63008;53.112;8.896;2023-05-19T09:22:45;102707.22;;;18.67;49.74
5126;BME280;63008;53.112;8.896;2023-05-19T09:24:47;102712.72;;;19.08;52.49
5126;BME280;63008;53.112;8.896;2023-05-19T09:26:48;102705.56;;;18.86;46.03
5126;BME280;63008;53.112;8.896;2023-05-19T09:28:49;102701.16;;;19.18;49.19
5126;BME280;63008;53.112;8.896;2023-05-19T09:31:04;102707.06;;;19.61;46.02
5126;BME280;63008;53.112;8.896;2023-05-19T09:33:05;102709.66;;;20.02;46.17
5126;BME280;63008;53.112;8.896;2023-05-19T09:35:11;102708.72;;;20.61;43.58
5126;BME280;63008;53.112;8.896;2023-05-19T09:37:12;102714.28;;;20.73;43.77
5126;BME280;63008;53.112;8.896;2023-05-19T09:39:14;102708.22;;;20.32;41.40
5126;BME280;63008;53.112;8.896;2023-05-19T09:41:16;102708.69;;;20.73;44.26
5126;BME280;63008;53.112;8.896;2023-05-19T09:43:17;102703.28;;;20.52;44.76
5126;BME280;63008;53.112;8.896;2023-05-19T09:45:18;102704.56;;;20.94;43.86
5126;BME280;63008;53.112;8.896;2023-05-19T09:47:20;102699.94;;;21.29;41.16
5126;BME280;63008;53.112;8.896;2023-05-19T09:49:28;102691.16;;;21.74;45.16
5126;BME280;63008;53.112;8.896;2023-05-19T09:51:29;102686.69;;;22.19;39.13
5126;BME280;63008;53.112;8.896;2023-05-19T09:53:33;102683.50;;;22.21;39.22
5126;BME280;63008;53.112;8.896;2023-05-19T09:55:34;102683.88;;;23.33;36.10
5126;BME280;63008;53.112;8.896;2023-05-19T09:57:35;102686.94;;;23.47;37.17
5126;BME280;63008;53.112;8.896;2023-05-19T09:59:37;102682.84;;;21.93;37.99
5126;BME280;63008;53.112;8.896;2023-05-19T10:01:39;102682.66;;;21.86;38.37
5126;BME280;63008;53.112;8.896;2023-05-19T10:03:41;102679.06;;;21.70;39.24
5126;BME280;63008;53.112;8.896;2023-05-19T10:05:42;102674.28;;;21.86;42.27
5126;BME280;63008;53.112;8.896;2023-05-19T10:07:44;102676.25;;;22.01;40.28
5126;BME280;63008;53.112;8.896;2023-05-19T10:09:47;102680.06;;;21.62;39.81
5126;BME280;63008;53.112;8.896;2023-05-19T10:11:50;102669.13;;;21.41;43.30
5126;BME280;63008;53.112;8.896;2023-05-19T10:13:51;102669.28;;;20.35;40.23
5126;BME280;63008;53.112;8.896;2023-05-19T10:15:52;102671.53;;;20.06;41.69
5126;BME280;63008;53.112;8.896;2023-05-19T10:17:53;102663.88;;;19.67;40.41
5126;BME280;63008;53.112;8.896;2023-05-19T10:19:56;102665.75;;;19.75;43.54
5126;BME280;63008;53.112;8.896;2023-05-19T10:21:57;102661.78;;;20.51;41.20
5126;BME280;63008;53.112;8.896;2023-05-19T10:23:58;102667.00;;;20.52;40.23
5126;BME280;63008;53.112;8.896;2023-05-19T10:26:01;102653.41;;;20.51;38.82
5126;BME280;63008;53.112;8.896;2023-05-19T10:28:08;102656.44;;;21.44;39.35
5126;BME280;63008;53.112;8.896;2023-05-19T10:30:17;102652.94;;;22.31;36.23
5126;BME280;63008;53.112;8.896;2023-05-19T10:32:22;102651.19;;;21.42;39.26
5126;BME280;63008;53.112;8.896;2023-05-19T10:34:46;102646.69;;;22.37;40.03
5126;BME280;63008;53.112;8.896;2023-05-19T10:37:02;102653.38;;;21.64;39.55
5126;BME280;63008;53.112;8.896;2023-05-19T10:39:33;102656.63;;;20.65;37.78
5126;BME280;63008;53.112;8.896;2023-05-19T10:41:59;102656.97;;;21.49;42.56
5126;BME280;63008;53.112;8.896;2023-05-19T10:44:15;102650.25;;;22.72;37.07
5126;BME280;63008;53.112;8.896;2023-05-19T10:46:24;102649.38;;;22.87;36.97
5126;BME280;63008;53.112;8.896;2023-05-19T10:48:32;102649.50;;;22.75;37.61
5126;BME280;63008;53.112;8.896;2023-05-19T10:50:36;102653.59;;;22.59;36.28
5126;BME280;63008;53.112;8.896;2023-05-19T10:52:38;102647.66;;;22.26;39.32
5126;BME280;63008;53.112;8.896;2023-05-19T10:54:41;102648.19;;;22.32;37.93
5126;BME280;63008;53.112;8.896;2023-05-19T10:56:43;102634.72;;;22.03;36.25
5126;BME280;63008;53.112;8.896;2023-05-19T10:58:48;102637.84;;;21.36;40.35
5126;BME280;63008;53.112;8.896;2023-05-19T11:00:59;102638.94;;;21.62;40.22
5126;BME280;63008;53.112;8.896;2023-05-19T11:03:15;102632.09;;;21.75;40.68
5126;BME280;63008;53.112;8.896;2023-05-19T11:05:27;102631.91;;;21.22;37.16